createdAt,value
2018-04-30T07:34:07.520Z,17.23
2018-04-30T07:36:35.046Z,15.93
2018-04-30T07:39:02.561Z,15.20
2018-04-30T07:41:30.079Z,13.70
2018-04-30T07:43:57.582Z,13.37
2018-04-30T07:46:25.607Z,12.73
2018-04-30T07:48:53.133Z,11.67
2018-04-30T07:51:20.637Z,10.70
2018-04-30T07:53:48.146Z,10.13
2018-04-30T07:56:15.672Z,10.40
2018-04-30T10:20:12.921Z,2.83
2018-04-30T10:45:43.059Z,2.57
2018-04-30T10:48:12.508Z,2.77
2018-04-30T10:50:43.557Z,2.60
2018-04-30T10:53:11.293Z,2.50
2018-04-30T10:55:39.968Z,2.40
2018-04-30T10:58:08.903Z,2.20
2018-04-30T11:00:37.858Z,2.30
2018-04-30T11:03:09.099Z,2.33
2018-04-30T11:05:37.773Z,2.07
2018-04-30T11:08:09.423Z,2.23
2018-04-30T11:10:37.042Z,2.45
2018-04-30T11:13:05.377Z,2.37
2018-04-30T11:15:33.014Z,2.20
2018-04-30T11:18:00.643Z,1.90
2018-04-30T11:20:28.953Z,1.93
2018-04-30T11:22:56.509Z,1.83
2018-04-30T11:25:24.074Z,2.00
2018-04-30T11:27:52.796Z,1.80
2018-04-30T11:30:20.433Z,1.70
2018-04-30T11:32:53.105Z,1.80
2018-04-30T11:35:21.338Z,1.73
2018-04-30T11:37:49.889Z,1.73
2018-04-30T11:40:36.785Z,1.50
2018-04-30T11:43:04.603Z,1.73
2018-04-30T11:45:37.341Z,1.53
2018-04-30T11:51:07.455Z,1.70
2018-04-30T11:53:43.279Z,1.70
2018-04-30T11:56:22.485Z,1.87
2018-04-30T12:01:41.910Z,1.87
2018-04-30T12:04:10.146Z,1.90
2018-04-30T12:06:37.793Z,1.97
2018-04-30T12:09:06.266Z,1.90
2018-04-30T12:11:35.444Z,1.60
2018-04-30T12:14:03.758Z,1.60
2018-04-30T12:16:57.364Z,1.50
2018-04-30T12:19:32.853Z,1.50
2018-04-30T12:24:56.406Z,2.20
2018-04-30T12:27:24.567Z,1.60
2018-04-30T12:29:53.773Z,1.60
2018-04-30T12:41:36.192Z,1.47
2018-04-30T12:50:58.241Z,1.50
2018-04-30T12:53:26.226Z,1.50
2018-04-30T12:55:55.246Z,1.67
2018-04-30T16:32:31.076Z,1.30
2018-04-30T16:51:31.435Z,1.00
2018-04-30T17:13:48.442Z,0.97
2018-04-30T17:16:27.567Z,0.90
2018-04-30T17:21:35.122Z,1.30
2018-04-30T17:24:07.522Z,1.33
2018-04-30T17:29:13.151Z,1.20
2018-04-30T17:39:22.085Z,1.10
2018-04-30T17:41:51.499Z,1.17
2018-04-30T17:54:30.636Z,0.90
2018-04-30T17:59:32.359Z,1.07
2018-04-30T18:04:33.205Z,0.90
2018-04-30T18:07:02.078Z,1.10
2018-04-30T18:12:04.185Z,0.93
2018-04-30T18:19:41.092Z,0.93
2018-04-30T18:22:09.182Z,0.97
2018-04-30T18:27:11.399Z,1.10
2018-04-30T18:29:39.389Z,1.10
2018-04-30T18:39:44.580Z,0.90
2018-04-30T18:42:12.957Z,1.47
2018-04-30T18:49:49.814Z,1.10
2018-04-30T18:54:50.322Z,0.90
2018-04-30T19:02:25.162Z,1.00
2018-04-30T19:04:53.647Z,1.00
2018-04-30T19:22:37.349Z,0.77
2018-04-30T19:27:39.869Z,0.90
2018-04-30T19:30:08.214Z,0.60
2018-04-30T19:32:36.527Z,0.40
2018-04-30T19:42:44.147Z,0.70
2018-04-30T19:45:15.006Z,0.83
2018-04-30T19:47:43.204Z,0.67
2018-04-30T19:50:12.172Z,0.50
2018-04-30T19:52:41.397Z,0.80
2018-04-30T19:55:11.165Z,0.73
2018-04-30T19:57:39.314Z,0.90
2018-04-30T20:00:08.380Z,1.10
2018-04-30T20:02:37.656Z,0.97
2018-04-30T20:05:05.757Z,0.70
2018-04-30T20:12:38.449Z,0.80
2018-04-30T20:15:07.193Z,0.83
2018-04-30T20:17:35.434Z,0.80
2018-04-30T20:20:03.735Z,0.60
2018-04-30T20:27:39.532Z,0.87
2018-04-30T20:30:09.377Z,0.90
2018-04-30T20:35:09.495Z,0.97
2018-04-30T20:37:41.037Z,0.80
2018-04-30T20:45:15.215Z,0.70
2018-04-30T20:50:16.294Z,0.83
2018-04-30T20:52:45.052Z,1.00
2018-04-30T20:57:45.307Z,1.07
2018-04-30T21:00:13.659Z,0.97
2018-04-30T21:02:41.946Z,0.73
2018-04-30T21:05:10.188Z,1.03
2018-04-30T21:07:38.181Z,1.00
2018-04-30T21:10:06.459Z,0.90
2018-04-30T21:17:41.488Z,1.20
2018-04-30T21:27:49.747Z,0.90
2018-04-30T21:35:25.932Z,1.57
2018-04-30T21:37:54.531Z,1.10
2018-04-30T21:40:25.205Z,1.53
2018-04-30T21:42:53.228Z,0.93
2018-04-30T21:45:21.534Z,1.00
2018-04-30T21:50:27.710Z,1.07
2018-04-30T21:52:56.656Z,1.00
2018-04-30T21:55:26.447Z,1.33
2018-04-30T21:57:55.127Z,1.30
2018-04-30T22:00:28.341Z,1.50
2018-04-30T22:02:57.998Z,1.67
2018-04-30T22:07:59.978Z,1.30
2018-04-30T22:18:07.072Z,1.90
2018-04-30T22:20:35.193Z,1.53
2018-04-30T22:23:03.712Z,2.10
2018-04-30T22:25:35.947Z,2.00
2018-04-30T22:28:04.163Z,2.00
2018-04-30T22:30:33.115Z,2.37
2018-04-30T22:35:34.027Z,2.40
2018-04-30T22:38:02.023Z,2.40
2018-04-30T22:40:30.220Z,2.97
2018-04-30T22:42:58.445Z,2.57
2018-04-30T22:48:02.918Z,2.80
2018-04-30T22:53:03.128Z,2.80
2018-04-30T22:55:32.918Z,3.13
2018-04-30T22:58:01.912Z,2.50
2018-04-30T23:00:33.299Z,3.07
2018-04-30T23:03:01.305Z,3.17
2018-04-30T23:05:30.706Z,2.70
2018-04-30T23:08:00.497Z,2.70
2018-04-30T23:10:28.468Z,2.47
2018-04-30T23:12:56.498Z,2.53
2018-04-30T23:15:25.987Z,2.47
2018-04-30T23:17:53.993Z,2.50
2018-04-30T23:20:23.648Z,2.50
2018-04-30T23:22:52.821Z,2.17
2018-04-30T23:25:22.240Z,2.40
2018-04-30T23:27:50.291Z,2.30
2018-04-30T23:30:18.607Z,2.30
2018-04-30T23:32:46.815Z,2.70
2018-04-30T23:35:18.543Z,2.20
2018-04-30T23:37:47.341Z,2.40
2018-04-30T23:40:15.444Z,2.70
2018-04-30T23:42:44.082Z,2.20
2018-04-30T23:45:12.100Z,2.00
2018-04-30T23:47:40.163Z,1.83
2018-04-30T23:50:08.167Z,1.90
2018-04-30T23:52:36.131Z,1.77
2018-04-30T23:55:04.330Z,1.83
2018-04-30T23:57:33.076Z,1.90
